createdAt,value
2023-01-11T00:00:46.648Z,22.50
2023-01-11T00:03:13.345Z,18.70
2023-01-11T00:05:40.505Z,12.00
2023-01-11T00:08:07.487Z,12.50
2023-01-11T00:10:34.121Z,10.00
2023-01-11T00:13:01.342Z,17.00
2023-01-11T00:15:28.101Z,10.30
2023-01-11T00:17:54.722Z,13.10
2023-01-11T00:20:21.378Z,21.10
2023-01-11T00:22:48.113Z,21.80
2023-01-11T00:25:14.744Z,11.10
2023-01-11T00:27:41.394Z,10.10
2023-01-11T00:30:08.547Z,10.80
2023-01-11T00:32:35.153Z,16.10
2023-01-11T00:35:02.551Z,14.60
2023-01-11T00:37:29.117Z,10.50
2023-01-11T00:39:55.741Z,9.10
2023-01-11T00:42:41.122Z,17.20
2023-01-11T00:45:26.466Z,8.60
2023-01-11T00:48:01.147Z,10.30
2023-01-11T00:50:28.939Z,20.50
2023-01-11T00:52:55.671Z,8.70
2023-01-11T00:55:22.264Z,21.70
2023-01-11T00:57:48.846Z,18.00
2023-01-11T01:00:16.321Z,12.40
2023-01-11T01:02:42.973Z,14.20
2023-01-11T01:05:09.780Z,17.30
2023-01-11T01:07:36.696Z,9.90
2023-01-11T01:10:03.982Z,21.50
2023-01-11T01:12:49.350Z,10.40
2023-01-11T01:15:15.930Z,20.20
2023-01-11T01:17:42.514Z,14.90
2023-01-11T01:20:09.385Z,9.90
2023-01-11T01:22:36.007Z,18.60
2023-01-11T01:25:02.649Z,19.30
2023-01-11T01:27:29.300Z,6.60
2023-01-11T01:29:55.903Z,15.70
2023-01-11T01:32:22.583Z,8.30
2023-01-11T01:34:49.331Z,14.40
2023-01-11T01:37:15.972Z,8.90
2023-01-11T01:39:42.631Z,12.20
2023-01-11T01:42:13.488Z,12.30
2023-01-11T01:44:54.066Z,10.50
2023-01-11T01:47:21.539Z,13.40
2023-01-11T01:49:48.109Z,10.40
2023-01-11T01:52:14.760Z,7.30
2023-01-11T01:54:42.334Z,10.60
2023-01-11T01:57:19.312Z,6.70
2023-01-11T01:59:46.037Z,18.70
2023-01-11T02:02:12.766Z,12.20
2023-01-11T02:04:40.668Z,16.80
2023-01-11T02:20:14.447Z,8.30
2023-01-11T02:22:47.084Z,3.50
2023-01-11T02:25:32.752Z,7.80
2023-01-11T02:28:04.937Z,4.00
2023-01-11T02:30:44.007Z,5.20
2023-01-11T02:33:33.944Z,2.20
2023-01-11T02:36:06.962Z,3.40
2023-01-11T02:38:39.287Z,3.20
2023-01-11T02:41:12.470Z,4.60
2023-01-11T02:44:18.887Z,5.20
2023-01-11T02:46:49.642Z,4.70
2023-01-11T02:49:19.942Z,2.40
2023-01-11T02:51:57.365Z,3.70
2023-01-11T02:54:24.035Z,7.20
2023-01-11T02:56:51.897Z,3.10
2023-01-11T02:59:19.610Z,3.40
2023-01-11T03:01:51.033Z,2.40
2023-01-11T03:04:24.435Z,4.40
2023-01-11T03:06:52.763Z,4.00
2023-01-11T03:09:20.532Z,3.30
2023-01-11T03:12:12.240Z,3.70
2023-01-11T03:14:58.015Z,3.10
2023-01-11T03:17:43.680Z,6.30
2023-01-11T03:20:20.844Z,2.10
2023-01-11T03:22:50.413Z,4.80
2023-01-11T03:25:19.149Z,4.70
2023-01-11T03:28:01.863Z,2.70
2023-01-11T03:30:28.568Z,2.00
2023-01-11T03:32:59.651Z,4.70
2023-01-11T03:35:28.095Z,2.20
2023-01-11T03:37:55.838Z,4.10
2023-01-11T03:40:24.253Z,1.20
2023-01-11T03:43:11.107Z,2.10
2023-01-11T03:45:48.892Z,1.80
2023-01-11T03:48:17.774Z,2.60
2023-01-11T03:50:44.861Z,2.70
2023-01-11T03:53:11.677Z,2.40
2023-01-11T03:55:39.210Z,7.40
2023-01-11T03:58:05.815Z,1.10
2023-01-11T04:00:32.554Z,2.30
2023-01-11T04:02:59.928Z,1.10
2023-01-11T04:05:26.516Z,2.60
2023-01-11T04:07:53.285Z,3.80
2023-01-11T04:10:19.923Z,5.00
2023-01-11T04:12:47.832Z,1.10
2023-01-11T04:15:15.200Z,1.70
2023-01-11T04:17:42.179Z,2.80
2023-01-11T04:20:09.884Z,2.40
2023-01-11T04:22:36.489Z,6.30
2023-01-11T04:25:03.269Z,4.20
2023-01-11T04:27:29.863Z,3.90
2023-01-11T04:29:56.567Z,3.30
2023-01-11T04:32:23.209Z,5.00
2023-01-11T04:34:50.589Z,5.30
2023-01-11T04:37:17.196Z,4.60
2023-01-11T04:39:43.802Z,3.80
2023-01-11T04:42:20.585Z,1.50
2023-01-11T04:44:50.532Z,2.60
2023-01-11T04:47:17.364Z,2.10
2023-01-11T04:49:44.036Z,3.10
2023-01-11T04:52:11.622Z,3.70
2023-01-11T04:54:38.450Z,1.90
2023-01-11T04:57:05.165Z,1.50
2023-01-11T04:59:31.836Z,1.30
2023-01-11T05:01:58.465Z,1.50
2023-01-11T05:04:25.132Z,1.50
2023-01-11T05:06:51.938Z,6.00
2023-01-11T05:09:18.668Z,1.90
2023-01-11T05:11:45.569Z,2.00
2023-01-11T05:14:12.411Z,2.80
2023-01-11T05:16:39.055Z,2.40
2023-01-11T05:19:06.439Z,2.50
2023-01-11T05:21:34.185Z,2.80
2023-01-11T05:24:01.209Z,4.70
2023-01-11T05:26:28.891Z,5.60
2023-01-11T05:28:56.113Z,2.00
2023-01-11T05:31:22.948Z,3.10
2023-01-11T05:33:49.535Z,1.50
2023-01-11T05:36:17.024Z,1.60
2023-01-11T05:38:45.252Z,1.50
2023-01-11T05:41:12.123Z,3.00
2023-01-11T05:43:58.694Z,3.00
2023-01-11T05:46:25.998Z,2.10
2023-01-11T05:48:52.835Z,2.20
2023-01-11T05:51:19.485Z,2.70
2023-01-11T05:53:46.177Z,4.70
2023-01-11T05:56:12.791Z,4.70
2023-01-11T05:58:39.393Z,3.10
2023-01-11T06:01:05.996Z,5.10
2023-01-11T06:15:54.751Z,10.70
2023-01-11T06:18:21.589Z,4.20
2023-01-11T06:20:48.719Z,9.70
2023-01-11T06:23:15.394Z,5.70
2023-01-11T06:25:43.479Z,3.90
2023-01-11T06:28:11.194Z,1.90
2023-01-11T06:30:38.032Z,7.20
2023-01-11T06:33:08.194Z,2.70
2023-01-11T06:35:41.307Z,3.80
2023-01-11T06:38:08.477Z,4.90
2023-01-11T06:40:35.331Z,6.30
2023-01-11T06:43:02.109Z,3.00
2023-01-11T06:45:28.769Z,11.40
2023-01-11T06:47:55.408Z,1.90
2023-01-11T06:50:22.171Z,2.40
2023-01-11T06:52:53.008Z,6.40
2023-01-11T06:55:19.725Z,5.50
2023-01-11T06:57:46.299Z,8.30
2023-01-11T07:00:13.349Z,3.90
2023-01-11T07:02:40.034Z,2.00
2023-01-11T07:05:06.768Z,6.00
2023-01-11T07:07:33.471Z,5.20
2023-01-11T07:10:00.039Z,5.60
2023-01-11T07:12:26.598Z,2.30
2023-01-11T07:14:53.203Z,8.20
2023-01-11T07:17:19.794Z,7.00
2023-01-11T07:19:46.405Z,8.40
2023-01-11T07:22:13.072Z,8.10
2023-01-11T07:24:39.728Z,7.40
2023-01-11T07:27:06.334Z,13.50
2023-01-11T07:29:32.990Z,4.90
2023-01-11T07:31:59.591Z,7.60
2023-01-11T07:34:26.269Z,9.60
2023-01-11T07:36:52.934Z,6.60
2023-01-11T07:39:19.566Z,5.70
2023-01-11T07:42:05.009Z,4.60
2023-01-11T07:44:31.660Z,6.20
2023-01-11T07:46:58.468Z,5.90
2023-01-11T07:49:25.266Z,4.40
2023-01-11T07:51:52.309Z,5.80
2023-01-11T07:54:18.979Z,6.60
2023-01-11T07:57:04.146Z,5.60
2023-01-11T07:59:30.858Z,8.10
2023-01-11T08:01:57.463Z,9.20
2023-01-11T08:04:24.080Z,7.20
2023-01-11T08:06:50.661Z,2.80
2023-01-11T08:09:17.439Z,4.80
2023-01-11T08:12:02.995Z,5.80
2023-01-11T08:14:42.038Z,5.70
2023-01-11T08:17:09.262Z,9.50
2023-01-11T08:19:35.941Z,10.50
2023-01-11T08:22:02.636Z,5.70
2023-01-11T08:24:29.431Z,7.00
2023-01-11T08:26:56.141Z,7.30
2023-01-11T08:29:23.128Z,7.70
2023-01-11T08:31:49.729Z,10.90
2023-01-11T08:34:16.626Z,5.20
2023-01-11T08:36:43.329Z,6.00
2023-01-11T08:39:10.002Z,5.50
2023-01-11T08:41:38.540Z,3.60
2023-01-11T08:44:05.460Z,3.70
2023-01-11T08:46:34.147Z,8.10
2023-01-11T08:49:01.259Z,6.60
2023-01-11T08:51:27.887Z,7.30
2023-01-11T08:53:54.546Z,6.40
2023-01-11T08:56:21.135Z,7.80
2023-01-11T08:58:47.754Z,5.10
2023-01-11T09:01:14.388Z,7.20
2023-01-11T09:03:41.014Z,6.70
2023-01-11T09:06:07.598Z,6.60
2023-01-11T09:08:34.167Z,6.80
2023-01-11T09:11:00.770Z,8.30
2023-01-11T09:13:27.455Z,8.20
2023-01-11T09:15:57.588Z,8.50
2023-01-11T09:18:26.842Z,3.20
2023-01-11T09:20:54.048Z,7.50
2023-01-11T09:23:20.626Z,7.10
2023-01-11T09:25:47.482Z,11.50
2023-01-11T09:28:14.131Z,12.80
2023-01-11T09:30:40.875Z,5.90
2023-01-11T09:33:07.519Z,4.50
2023-01-11T09:35:35.684Z,11.20
2023-01-11T09:38:02.739Z,4.20
2023-01-11T09:40:35.419Z,3.30
2023-01-11T09:43:05.059Z,5.70
2023-01-11T09:45:32.710Z,6.00
2023-01-11T09:48:12.560Z,2.60
2023-01-11T09:50:45.678Z,10.40
2023-01-11T09:53:15.114Z,8.40
2023-01-11T09:55:46.861Z,9.10
2023-01-11T09:58:29.344Z,6.50
2023-01-11T10:01:01.587Z,6.10
2023-01-11T10:03:43.902Z,8.50
2023-01-11T10:06:15.069Z,6.50
2023-01-11T10:18:23.245Z,5.20
2023-01-11T10:18:28.490Z,7.30
2023-01-11T10:20:35.460Z,10.40
2023-01-11T10:23:05.050Z,5.00
2023-01-11T10:25:42.153Z,8.40
2023-01-11T10:28:17.472Z,7.10
2023-01-11T10:30:57.724Z,6.20
2023-01-11T10:33:48.733Z,10.10
2023-01-11T10:36:39.097Z,5.30
2023-01-11T10:39:24.878Z,8.60
2023-01-11T10:42:01.480Z,9.00
2023-01-11T10:44:32.736Z,9.10
2023-01-11T10:46:59.876Z,8.20
2023-01-11T10:49:38.160Z,1.90
2023-01-11T10:52:23.684Z,11.00
2023-01-11T10:54:54.956Z,6.90
2023-01-11T10:57:22.969Z,8.80
2023-01-11T10:59:56.337Z,7.80
2023-01-11T11:02:29.180Z,11.70
2023-01-11T11:05:00.718Z,12.60
2023-01-11T11:07:42.515Z,9.00
2023-01-11T11:10:12.184Z,6.80
2023-01-11T11:12:39.990Z,12.00
2023-01-11T11:15:11.676Z,6.90
2023-01-11T11:17:39.539Z,9.00
2023-01-11T11:20:12.377Z,11.80
2023-01-11T11:22:38.996Z,10.30
2023-01-11T11:25:12.014Z,15.50
2023-01-11T11:27:40.398Z,10.50
2023-01-11T11:30:07.584Z,7.30
2023-01-11T11:32:36.779Z,14.70
2023-01-11T11:35:04.078Z,9.90
2023-01-11T11:37:40.637Z,9.50
2023-01-11T11:40:13.089Z,11.90
2023-01-11T11:42:39.662Z,9.00
2023-01-11T11:45:09.283Z,6.40
2023-01-11T11:47:36.261Z,9.20
2023-01-11T11:50:42.335Z,13.10
2023-01-11T11:55:36.115Z,11.30
2023-01-11T11:58:06.533Z,15.20
2023-01-11T12:00:34.833Z,14.30
2023-01-11T12:03:05.289Z,20.00
2023-01-11T12:05:31.970Z,14.60
2023-01-11T12:07:58.603Z,12.80
2023-01-11T12:10:28.614Z,10.80
2023-01-11T12:12:55.262Z,15.90
2023-01-11T12:15:42.247Z,7.70
2023-01-11T12:18:28.432Z,17.60
2023-01-11T12:20:55.268Z,11.90
2023-01-11T12:23:25.687Z,11.70
2023-01-11T12:28:35.647Z,11.20
2023-01-11T12:31:15.791Z,14.10
2023-01-11T12:33:44.409Z,16.60
2023-01-11T12:36:17.195Z,14.80
2023-01-11T12:38:43.814Z,17.80
2023-01-11T12:41:44.499Z,10.80
2023-01-11T12:44:13.415Z,11.20
2023-01-11T12:46:54.535Z,6.20
2023-01-11T12:49:24.185Z,7.30
2023-01-11T12:51:59.830Z,12.50
2023-01-11T12:54:35.558Z,8.00
2023-01-11T12:57:19.405Z,9.30
2023-01-11T12:59:55.412Z,14.40
2023-01-11T13:02:37.597Z,9.20
2023-01-11T13:05:39.996Z,13.70
2023-01-11T13:08:06.722Z,11.70
2023-01-11T13:10:34.986Z,10.00
2023-01-11T13:13:13.418Z,9.70
2023-01-11T13:15:59.019Z,8.70
2023-01-11T13:18:31.784Z,13.00
2023-01-11T13:21:54.362Z,9.60
2023-01-11T13:24:26.508Z,12.30
2023-01-11T13:26:54.664Z,17.00
2023-01-11T13:29:21.386Z,12.80
2023-01-11T13:31:48.001Z,11.80
2023-01-11T13:34:19.571Z,13.30
2023-01-11T13:36:48.347Z,11.20
2023-01-11T13:39:15.308Z,6.80
2023-01-11T13:41:43.911Z,10.40
2023-01-11T13:44:13.735Z,13.10
2023-01-11T13:46:43.541Z,15.40
2023-01-11T13:49:29.242Z,14.90
2023-01-11T13:51:59.759Z,11.50
2023-01-11T13:54:28.609Z,14.50
2023-01-11T13:56:59.730Z,13.40
2023-01-11T14:00:45.554Z,11.80
2023-01-11T14:03:31.291Z,9.20
2023-01-11T14:06:20.275Z,11.60
2023-01-11T14:11:39.048Z,9.60
2023-01-11T14:14:16.615Z,13.10
2023-01-11T14:17:02.601Z,11.70
2023-01-11T14:19:32.516Z,7.20
2023-01-11T14:22:13.813Z,13.10
2023-01-11T14:24:41.562Z,10.60
2023-01-11T14:27:08.213Z,18.50
2023-01-11T14:29:40.877Z,8.30
2023-01-11T14:32:13.621Z,8.50
2023-01-11T14:34:40.199Z,5.10
2023-01-11T14:37:15.970Z,14.50
2023-01-11T14:40:08.885Z,10.50
2023-01-11T14:42:47.932Z,3.80
2023-01-11T14:45:23.744Z,9.60
2023-01-11T14:47:59.661Z,12.00
2023-01-11T14:50:26.356Z,5.30
2023-01-11T14:52:53.031Z,5.50
2023-01-11T14:55:26.421Z,4.10
2023-01-11T14:57:56.134Z,4.10
2023-01-11T15:00:22.720Z,4.50
2023-01-11T15:03:01.617Z,4.00
2023-01-11T15:05:31.592Z,9.20
2023-01-11T15:08:18.507Z,8.70
2023-01-11T15:10:47.326Z,8.80
2023-01-11T15:13:15.380Z,6.20
2023-01-11T15:16:00.899Z,15.20
2023-01-11T15:18:27.715Z,11.40
2023-01-11T15:20:55.292Z,12.40
2023-01-11T15:23:21.921Z,17.10
2023-01-11T15:25:49.480Z,16.30
2023-01-11T15:28:35.097Z,21.50
2023-01-11T15:31:04.998Z,17.50
2023-01-11T15:33:51.118Z,9.20
2023-01-11T15:36:17.862Z,8.00
2023-01-11T15:38:44.423Z,13.40
2023-01-11T15:41:30.792Z,12.70
2023-01-11T15:44:20.379Z,10.00
2023-01-11T15:46:56.325Z,12.40
2023-01-11T15:49:27.153Z,9.60
2023-01-11T15:51:56.757Z,9.70
2023-01-11T15:54:35.542Z,8.10
2023-01-11T15:57:10.776Z,16.50
2023-01-11T15:59:50.652Z,15.50
2023-01-11T16:02:21.837Z,13.00
2023-01-11T16:04:52.001Z,13.30
2023-01-11T16:07:27.980Z,8.60
2023-01-11T16:10:07.779Z,13.60
2023-01-11T16:12:44.636Z,9.80
2023-01-11T16:15:30.253Z,7.00
2023-01-11T16:17:58.096Z,10.10
2023-01-11T16:20:28.964Z,12.10
2023-01-11T16:22:56.666Z,12.70
2023-01-11T16:25:23.495Z,13.40
2023-01-11T16:27:53.485Z,12.70
2023-01-11T16:30:20.131Z,16.00
2023-01-11T16:32:46.781Z,12.30
2023-01-11T16:35:24.290Z,14.70
2023-01-11T16:37:51.937Z,20.10
2023-01-11T16:40:20.260Z,17.10
2023-01-11T16:42:49.509Z,15.40
2023-01-11T16:45:20.271Z,17.50
2023-01-11T16:48:16.390Z,16.30
2023-01-11T16:50:48.516Z,14.20
2023-01-11T16:53:15.672Z,14.10
2023-01-11T16:55:42.747Z,13.70
2023-01-11T16:58:20.827Z,10.70
2023-01-11T17:00:55.445Z,9.90
2023-01-11T17:03:23.874Z,19.70
2023-01-11T17:06:00.391Z,13.20
2023-01-11T17:08:28.384Z,10.10
2023-01-11T17:10:56.072Z,14.20
2023-01-11T17:13:46.147Z,18.20
2023-01-11T17:16:16.023Z,16.50
2023-01-11T17:18:42.785Z,13.30
2023-01-11T17:21:15.281Z,14.90
2023-01-11T17:23:41.946Z,10.30
2023-01-11T17:26:14.796Z,18.40
2023-01-11T17:28:43.902Z,20.90
2023-01-11T17:31:10.470Z,11.90
2023-01-11T17:33:37.071Z,17.80
2023-01-11T17:36:03.793Z,32.50
2023-01-11T17:38:30.490Z,10.00
2023-01-11T17:40:57.067Z,10.60
2023-01-11T17:43:43.012Z,9.50
2023-01-11T17:46:13.799Z,10.20
2023-01-11T17:48:40.602Z,11.00
2023-01-11T17:51:07.233Z,14.40
2023-01-11T17:53:34.511Z,10.80
2023-01-11T17:56:07.882Z,23.40
2023-01-11T17:58:37.898Z,14.20
2023-01-11T18:01:04.775Z,9.00
2023-01-11T18:03:34.674Z,13.10
2023-01-11T18:06:08.456Z,11.10
2023-01-11T18:08:35.136Z,10.60
2023-01-11T18:11:01.709Z,11.50
2023-01-11T18:13:31.383Z,11.90
2023-01-11T18:15:58.059Z,11.30
2023-01-11T18:18:45.145Z,14.50
2023-01-11T18:21:41.180Z,12.80
2023-01-11T18:27:14.619Z,11.00
2023-01-11T18:29:44.474Z,12.70
2023-01-11T18:32:11.630Z,19.10
2023-01-11T18:34:38.475Z,15.50
2023-01-11T18:37:08.086Z,13.00
2023-01-11T18:39:34.699Z,13.60
2023-01-11T18:42:07.302Z,17.80
2023-01-11T18:44:37.585Z,13.60
2023-01-11T18:47:14.720Z,22.30
2023-01-11T18:49:41.317Z,13.40
2023-01-11T18:52:08.004Z,9.60
2023-01-11T18:54:34.750Z,15.30
2023-01-11T19:05:26.223Z,15.70
2023-01-11T19:07:52.878Z,11.80
2023-01-11T19:10:20.122Z,12.80
2023-01-11T19:12:46.730Z,13.30
2023-01-11T19:15:13.506Z,16.90
2023-01-11T19:17:40.162Z,16.50
2023-01-11T19:20:09.332Z,14.60
2023-01-11T19:22:36.678Z,14.40
2023-01-11T19:25:03.250Z,15.90
2023-01-11T19:27:29.879Z,17.00
2023-01-11T19:41:03.879Z,14.40
2023-01-11T19:43:30.743Z,12.50
2023-01-11T19:45:57.651Z,13.00
2023-01-11T19:48:24.495Z,15.00
2023-01-11T19:50:51.128Z,11.20
2023-01-11T19:53:17.752Z,11.80
2023-01-11T19:55:44.320Z,12.00
2023-01-11T19:58:10.928Z,6.70
2023-01-11T20:00:37.506Z,8.70
2023-01-11T20:03:06.418Z,13.70
2023-01-11T20:05:33.269Z,7.10
2023-01-11T20:20:55.862Z,22.60
2023-01-11T20:23:26.656Z,42.30
2023-01-11T20:26:00.041Z,35.60
2023-01-11T20:28:26.829Z,19.90
2023-01-11T20:30:53.498Z,13.10
2023-01-11T20:33:20.410Z,14.90
2023-01-11T20:35:48.046Z,32.50
2023-01-11T20:38:14.407Z,15.30
2023-01-11T20:40:41.578Z,16.50
2023-01-11T20:43:10.531Z,8.70
2023-01-11T20:45:38.950Z,7.70
2023-01-11T20:48:06.033Z,7.50
2023-01-11T20:50:33.454Z,19.00
2023-01-11T20:53:00.103Z,14.10
2023-01-11T20:55:26.871Z,29.10
2023-01-11T20:57:53.376Z,17.70
2023-01-11T21:00:20.008Z,14.60
2023-01-11T21:02:49.601Z,15.90
2023-01-11T21:05:16.262Z,21.60
2023-01-11T21:07:42.732Z,16.50
2023-01-11T21:10:09.430Z,12.90
2023-01-11T21:15:04.117Z,25.10
2023-01-11T21:17:30.724Z,11.50
2023-01-11T21:19:57.259Z,14.50
2023-01-11T21:22:23.703Z,12.00
2023-01-11T21:24:50.349Z,14.00
2023-01-11T21:27:16.931Z,21.30
2023-01-11T21:29:43.628Z,10.60
2023-01-11T21:32:10.167Z,12.40
2023-01-11T21:34:37.447Z,10.90
2023-01-11T21:37:03.933Z,14.70
2023-01-11T21:39:30.518Z,10.30
2023-01-11T21:42:00.530Z,16.50
2023-01-11T21:44:30.110Z,12.90
2023-01-11T21:46:56.607Z,16.00
2023-01-11T21:49:26.559Z,15.00
2023-01-11T21:51:53.072Z,13.80
2023-01-11T21:54:19.648Z,10.60
2023-01-11T21:56:47.149Z,11.00
2023-01-11T21:59:14.027Z,13.90
2023-01-11T22:01:41.016Z,12.10
2023-01-11T22:04:08.024Z,7.90
2023-01-11T22:06:37.950Z,8.90
2023-01-11T22:09:04.943Z,7.30
2023-01-11T22:11:32.667Z,12.10
2023-01-11T22:16:50.355Z,12.90
2023-01-11T22:19:17.042Z,15.10
2023-01-11T22:21:43.725Z,16.90
2023-01-11T22:24:11.158Z,19.40
2023-01-11T22:26:38.997Z,15.80
2023-01-11T22:29:12.749Z,16.50
2023-01-11T22:31:40.393Z,17.30
2023-01-11T22:34:07.094Z,15.60
2023-01-11T22:36:33.751Z,15.80
2023-01-11T22:39:00.581Z,13.30
2023-01-11T22:41:27.280Z,12.50
2023-01-11T22:43:54.377Z,13.90
2023-01-11T22:46:21.905Z,9.60
2023-01-11T22:48:48.886Z,14.10
2023-01-11T22:51:16.012Z,13.20
2023-01-11T22:53:43.234Z,17.40
2023-01-11T22:56:10.328Z,15.90
2023-01-11T22:58:37.258Z,18.50
2023-01-11T23:01:17.153Z,12.80
2023-01-11T23:03:45.314Z,13.90
2023-01-11T23:06:12.081Z,15.90
2023-01-11T23:08:40.937Z,14.10
2023-01-11T23:11:08.020Z,14.90
2023-01-11T23:13:53.245Z,14.90
2023-01-11T23:16:19.923Z,22.10
2023-01-11T23:18:46.575Z,11.10
2023-01-11T23:21:13.207Z,10.70
2023-01-11T23:23:40.079Z,13.80
2023-01-11T23:26:07.278Z,17.50
2023-01-11T23:28:34.380Z,20.30
2023-01-11T23:31:06.994Z,24.60
2023-01-11T23:33:33.624Z,14.70
2023-01-11T23:36:00.207Z,15.00
2023-01-11T23:38:26.807Z,15.90
2023-01-11T23:41:12.346Z,17.80
2023-01-11T23:43:39.381Z,19.40
2023-01-11T23:46:24.914Z,11.90
2023-01-11T23:48:51.483Z,12.70
2023-01-11T23:51:18.127Z,17.30
2023-01-11T23:53:44.777Z,7.60
2023-01-11T23:56:11.535Z,11.80
2023-01-11T23:58:38.146Z,17.50
